NAA41 KDEN-KMSP
Flight info
| Callsign | NAA41 |
|---|---|
| Flight time | 1h 30m |
| Altitude | 33000 |
| Route | YELLO5 HANKI KD75A SSWAN TORGY4 |
| Aircraft | B722/M-SDFGHRWY/C |
Departure
| Time | 2026-05-06 19:01 |
|---|---|
| Airport | Denver International Airport (KDEN) |
Arrival
| Time | 2026-05-06 20:31 |
|---|---|
| Airport | Minneapolis–Saint Paul International Airport / Wold–Chamberlain Field (KMSP) |
| Time | Latitude | Longitude | Altitude | Speed | Heading |
|---|---|---|---|---|---|
| 2026-05-06 18:26 | 39.85939 | -104.67036 | 5382 ft | 0 kts | 178° |
| 2026-05-06 18:48 | 39.85940 | -104.67037 | 5384 ft | 0 kts | 178° |
| 2026-05-06 18:48 | 39.85951 | -104.67037 | 5383 ft | 4 kts | 178° |
| 2026-05-06 18:48 | 39.85971 | -104.67038 | 5381 ft | 0 kts | 177° |
| 2026-05-06 18:48 | 39.85990 | -104.67040 | 5381 ft | 5 kts | 175° |
| 2026-05-06 18:49 | 39.86006 | -104.67042 | 5378 ft | 0 kts | 173° |
| 2026-05-06 18:49 | 39.86016 | -104.67044 | 5380 ft | 0 kts | 172° |
| 2026-05-06 18:51 | 39.86012 | -104.67043 | 5380 ft | 1 kts | 165° |
| 2026-05-06 18:51 | 39.86006 | -104.67036 | 5379 ft | 1 kts | 125° |
| 2026-05-06 18:51 | 39.86004 | -104.67032 | 5380 ft | 0 kts | 109° |
| 2026-05-06 18:52 | 39.86004 | -104.67031 | 5380 ft | 0 kts | 109° |
| 2026-05-06 18:52 | 39.86004 | -104.67004 | 5382 ft | 6 kts | 67° |
| 2026-05-06 18:52 | 39.86033 | -104.67004 | 5381 ft | 6 kts | 322° |
| 2026-05-06 18:52 | 39.86061 | -104.67068 | 5377 ft | 11 kts | 279° |
| 2026-05-06 18:53 | 39.86065 | -104.67172 | 5373 ft | 12 kts | 272° |
| 2026-05-06 18:53 | 39.86066 | -104.67286 | 5373 ft | 12 kts | 269° |
| 2026-05-06 18:53 | 39.86065 | -104.67389 | 5378 ft | 11 kts | 270° |
| 2026-05-06 18:53 | 39.86066 | -104.67502 | 5377 ft | 13 kts | 270° |
| 2026-05-06 18:54 | 39.86068 | -104.67624 | 5382 ft | 13 kts | 271° |
| 2026-05-06 18:54 | 39.86068 | -104.67741 | 5383 ft | 13 kts | 269° |
| 2026-05-06 18:54 | 39.86068 | -104.67854 | 5385 ft | 12 kts | 270° |
| 2026-05-06 18:54 | 39.86069 | -104.67968 | 5387 ft | 12 kts | 270° |
| 2026-05-06 18:55 | 39.86070 | -104.68064 | 5389 ft | 10 kts | 271° |
| 2026-05-06 18:55 | 39.86054 | -104.68149 | 5390 ft | 10 kts | 243° |
| 2026-05-06 18:55 | 39.85997 | -104.68194 | 5387 ft | 11 kts | 190° |
| 2026-05-06 18:55 | 39.85913 | -104.68197 | 5388 ft | 13 kts | 180° |
| 2026-05-06 18:56 | 39.85807 | -104.68199 | 5386 ft | 17 kts | 183° |
| 2026-05-06 18:56 | 39.85677 | -104.68201 | 5385 ft | 20 kts | 180° |
| 2026-05-06 18:56 | 39.85532 | -104.68201 | 5386 ft | 20 kts | 179° |
| 2026-05-06 18:56 | 39.85403 | -104.68204 | 5385 ft | 17 kts | 181° |
| 2026-05-06 18:57 | 39.85295 | -104.68205 | 5387 ft | 14 kts | 181° |
| 2026-05-06 18:57 | 39.85230 | -104.68254 | 5389 ft | 10 kts | 244° |
| 2026-05-06 18:57 | 39.85209 | -104.68351 | 5385 ft | 13 kts | 263° |
| 2026-05-06 18:57 | 39.85207 | -104.68487 | 5377 ft | 17 kts | 271° |
| 2026-05-06 18:58 | 39.85204 | -104.68653 | 5373 ft | 20 kts | 268° |
| 2026-05-06 18:58 | 39.85200 | -104.68843 | 5365 ft | 22 kts | 269° |
| 2026-05-06 18:58 | 39.85196 | -104.69051 | 5356 ft | 24 kts | 270° |
| 2026-05-06 18:58 | 39.85200 | -104.69283 | 5350 ft | 27 kts | 272° |
| 2026-05-06 18:59 | 39.85203 | -104.69485 | 5348 ft | 17 kts | 269° |
| 2026-05-06 18:59 | 39.85204 | -104.69588 | 5355 ft | 7 kts | 273° |
| 2026-05-06 18:59 | 39.85216 | -104.69644 | 5354 ft | 7 kts | 320° |
| 2026-05-06 18:59 | 39.85241 | -104.69655 | 5355 ft | 4 kts | 354° |
| 2026-05-06 19:00 | 39.85458 | -104.69657 | 5361 ft | 58 kts | 1° |
| 2026-05-06 19:00 | 39.86031 | -104.69650 | 5369 ft | 106 kts | 0° |
| 2026-05-06 19:00 | 39.86903 | -104.69641 | 5373 ft | 145 kts | 0° |
| 2026-05-06 19:00 | 39.88001 | -104.69636 | 5567 ft | 164 kts | 359° |
| 2026-05-06 19:01 | 39.89124 | -104.69685 | 6141 ft | 165 kts | 357° |
| 2026-05-06 19:01 | 39.90298 | -104.69608 | 6629 ft | 168 kts | 8° |
| 2026-05-06 19:01 | 39.91435 | -104.69418 | 7210 ft | 161 kts | 8° |
| 2026-05-06 19:01 | 39.92536 | -104.69232 | 7708 ft | 160 kts | 8° |
| 2026-05-06 19:02 | 39.93653 | -104.69039 | 8111 ft | 165 kts | 8° |
| 2026-05-06 19:02 | 39.94810 | -104.68838 | 8523 ft | 170 kts | 7° |
| 2026-05-06 19:02 | 39.95991 | -104.68628 | 8909 ft | 178 kts | 7° |
| 2026-05-06 19:02 | 39.97267 | -104.68402 | 9264 ft | 195 kts | 7° |
| 2026-05-06 19:03 | 39.98676 | -104.68142 | 9694 ft | 214 kts | 8° |
| 2026-05-06 19:03 | 40.00218 | -104.67844 | 10183 ft | 234 kts | 8° |
| 2026-05-06 19:03 | 40.01896 | -104.67508 | 10647 ft | 254 kts | 9° |
| 2026-05-06 19:03 | 40.03634 | -104.66740 | 11093 ft | 277 kts | 29° |
| 2026-05-06 19:04 | 40.05270 | -104.65234 | 11557 ft | 299 kts | 38° |
| 2026-05-06 19:04 | 40.06935 | -104.63439 | 12007 ft | 321 kts | 39° |
| 2026-05-06 19:04 | 40.08707 | -104.61503 | 12429 ft | 343 kts | 39° |
| 2026-05-06 19:04 | 40.10568 | -104.59488 | 12852 ft | 357 kts | 38° |
| 2026-05-06 19:05 | 40.12495 | -104.57449 | 13255 ft | 358 kts | 38° |
| 2026-05-06 19:05 | 40.14424 | -104.55389 | 13798 ft | 358 kts | 38° |
| 2026-05-06 19:05 | 40.16359 | -104.53312 | 14457 ft | 362 kts | 38° |
| 2026-05-06 19:05 | 40.18308 | -104.51193 | 15164 ft | 367 kts | 38° |
| 2026-05-06 19:06 | 40.20286 | -104.49035 | 15860 ft | 373 kts | 37° |
| 2026-05-06 19:06 | 40.22316 | -104.46871 | 16547 ft | 379 kts | 37° |
| 2026-05-06 19:06 | 40.24368 | -104.44667 | 17257 ft | 384 kts | 37° |
| 2026-05-06 19:06 | 40.26416 | -104.42456 | 17931 ft | 389 kts | 37° |
| 2026-05-06 19:07 | 40.28516 | -104.40179 | 18562 ft | 395 kts | 37° |
| 2026-05-06 19:07 | 40.30640 | -104.37867 | 19138 ft | 399 kts | 37° |
| 2026-05-06 19:07 | 40.32783 | -104.35525 | 19711 ft | 403 kts | 37° |
| 2026-05-06 19:07 | 40.34942 | -104.33159 | 20271 ft | 407 kts | 37° |
| 2026-05-06 19:08 | 40.37120 | -104.30765 | 20831 ft | 410 kts | 37° |
| 2026-05-06 19:08 | 40.39315 | -104.28347 | 21375 ft | 414 kts | 36° |
| 2026-05-06 19:08 | 40.41556 | -104.25949 | 21909 ft | 418 kts | 36° |
| 2026-05-06 19:08 | 40.43816 | -104.23528 | 22430 ft | 421 kts | 36° |
| 2026-05-06 19:09 | 40.46064 | -104.21112 | 22919 ft | 425 kts | 35° |
| 2026-05-06 19:09 | 40.48368 | -104.18632 | 23441 ft | 425 kts | 36° |
| 2026-05-06 19:09 | 40.50649 | -104.16162 | 23928 ft | 426 kts | 36° |
| 2026-05-06 19:09 | 40.52933 | -104.13660 | 24374 ft | 428 kts | 37° |
| 2026-05-06 19:10 | 40.55215 | -104.11139 | 24823 ft | 429 kts | 37° |
| 2026-05-06 19:10 | 40.57505 | -104.08606 | 25279 ft | 431 kts | 37° |
| 2026-05-06 19:10 | 40.59804 | -104.06064 | 25663 ft | 432 kts | 37° |
| 2026-05-06 19:10 | 40.62110 | -104.03513 | 26070 ft | 434 kts | 37° |
| 2026-05-06 19:11 | 40.64423 | -104.00952 | 26482 ft | 435 kts | 37° |
| 2026-05-06 19:11 | 40.66713 | -103.98420 | 26907 ft | 436 kts | 37° |
| 2026-05-06 19:11 | 40.69044 | -103.95841 | 27278 ft | 438 kts | 37° |
| 2026-05-06 19:11 | 40.71380 | -103.93255 | 27646 ft | 440 kts | 37° |
| 2026-05-06 19:12 | 40.73707 | -103.90690 | 28086 ft | 433 kts | 37° |
| 2026-05-06 19:12 | 40.76021 | -103.88141 | 28432 ft | 434 kts | 36° |
| 2026-05-06 19:12 | 40.78344 | -103.85582 | 28815 ft | 436 kts | 36° |
| 2026-05-06 19:12 | 40.80686 | -103.82991 | 28939 ft | 444 kts | 37° |
| 2026-05-06 19:13 | 40.83059 | -103.80365 | 29216 ft | 445 kts | 36° |
| 2026-05-06 19:13 | 40.85427 | -103.77738 | 29363 ft | 443 kts | 36° |
| 2026-05-06 19:13 | 40.87784 | -103.75122 | 28807 ft | 444 kts | 37° |
| 2026-05-06 19:13 | 40.90117 | -103.72539 | 28297 ft | 441 kts | 36° |
| 2026-05-06 19:14 | 40.92466 | -103.69945 | 27829 ft | 439 kts | 36° |
| 2026-05-06 19:14 | 40.94803 | -103.67365 | 27400 ft | 436 kts | 36° |
| 2026-05-06 19:14 | 40.97126 | -103.64809 | 27052 ft | 430 kts | 36° |
| 2026-05-06 19:14 | 40.99405 | -103.62309 | 26649 ft | 424 kts | 36° |
| 2026-05-06 19:15 | 41.01674 | -103.59822 | 26244 ft | 423 kts | 36° |
| 2026-05-06 19:15 | 41.03937 | -103.57347 | 25889 ft | 421 kts | 36° |
| 2026-05-06 19:15 | 41.06161 | -103.54917 | 25569 ft | 419 kts | 36° |
| 2026-05-06 19:15 | 41.08408 | -103.52465 | 25263 ft | 418 kts | 36° |
| 2026-05-06 19:16 | 41.10649 | -103.50022 | 24958 ft | 416 kts | 36° |
| 2026-05-06 19:16 | 41.12887 | -103.47581 | 24629 ft | 418 kts | 36° |
| 2026-05-06 19:16 | 41.15117 | -103.45149 | 24716 ft | 409 kts | 36° |
| 2026-05-06 19:16 | 41.17271 | -103.42788 | 25096 ft | 395 kts | 36° |
| 2026-05-06 19:17 | 41.19355 | -103.40492 | 25445 ft | 384 kts | 36° |
| 2026-05-06 19:17 | 41.21384 | -103.38244 | 25715 ft | 377 kts | 36° |
| 2026-05-06 19:17 | 41.23407 | -103.36003 | 26047 ft | 382 kts | 36° |
| 2026-05-06 19:17 | 41.25438 | -103.33754 | 26386 ft | 389 kts | 36° |
| 2026-05-06 19:18 | 41.27533 | -103.31434 | 26715 ft | 395 kts | 36° |
| 2026-05-06 19:18 | 41.29661 | -103.29076 | 27040 ft | 401 kts | 36° |
| 2026-05-06 19:18 | 41.31822 | -103.26682 | 27360 ft | 407 kts | 36° |
| 2026-05-06 19:18 | 41.34013 | -103.24252 | 27698 ft | 413 kts | 36° |
| 2026-05-06 19:19 | 41.36233 | -103.21791 | 28036 ft | 418 kts | 36° |
| 2026-05-06 19:19 | 41.38444 | -103.19338 | 28355 ft | 422 kts | 36° |
| 2026-05-06 19:19 | 41.40749 | -103.16782 | 28700 ft | 427 kts | 36° |
| 2026-05-06 19:19 | 41.43040 | -103.14238 | 29041 ft | 431 kts | 36° |
| 2026-05-06 19:20 | 41.45320 | -103.11703 | 29411 ft | 434 kts | 36° |
| 2026-05-06 19:20 | 41.47643 | -103.09107 | 29755 ft | 438 kts | 36° |
| 2026-05-06 19:20 | 41.49981 | -103.06483 | 30112 ft | 441 kts | 36° |
| 2026-05-06 19:20 | 41.52337 | -103.03839 | 30413 ft | 443 kts | 36° |
| 2026-05-06 19:21 | 41.54732 | -103.01236 | 30710 ft | 445 kts | 35° |
| 2026-05-06 19:21 | 41.57135 | -102.98608 | 31001 ft | 447 kts | 35° |
| 2026-05-06 19:21 | 41.59551 | -102.95980 | 31301 ft | 449 kts | 35° |
| 2026-05-06 19:21 | 41.61968 | -102.93320 | 31596 ft | 452 kts | 38° |
| 2026-05-06 19:22 | 41.64044 | -102.90128 | 31876 ft | 461 kts | 52° |
| 2026-05-06 19:22 | 41.65615 | -102.86360 | 32194 ft | 467 kts | 60° |
| 2026-05-06 19:22 | 41.66836 | -102.82389 | 32502 ft | 471 kts | 67° |
| 2026-05-06 19:22 | 41.67617 | -102.78113 | 32826 ft | 474 kts | 73° |
| 2026-05-06 19:23 | 41.68506 | -102.73880 | 33144 ft | 472 kts | 68° |
| 2026-05-06 19:23 | 41.70866 | -102.65556 | 33158 ft | 485 kts | 63° |
| 2026-05-06 19:24 | 41.73540 | -102.57215 | 33155 ft | 488 kts | 63° |
| 2026-05-06 19:24 | 41.76179 | -102.48855 | 33157 ft | 488 kts | 64° |
| 2026-05-06 19:25 | 41.78730 | -102.40502 | 33176 ft | 487 kts | 64° |
| 2026-05-06 19:25 | 41.81364 | -102.32044 | 33148 ft | 494 kts | 64° |
| 2026-05-06 19:26 | 41.84022 | -102.23566 | 33162 ft | 493 kts | 64° |
| 2026-05-06 19:26 | 41.86685 | -102.15095 | 33168 ft | 493 kts | 64° |
| 2026-05-06 19:27 | 41.89349 | -102.06624 | 33167 ft | 493 kts | 64° |
| 2026-05-06 19:27 | 41.91978 | -101.98155 | 33145 ft | 499 kts | 65° |
| 2026-05-06 19:28 | 41.94623 | -101.89532 | 33152 ft | 499 kts | 64° |
| 2026-05-06 19:28 | 41.97275 | -101.80926 | 33152 ft | 498 kts | 64° |
| 2026-05-06 19:29 | 41.99929 | -101.72322 | 33148 ft | 498 kts | 64° |
| 2026-05-06 19:29 | 42.02572 | -101.63693 | 33151 ft | 502 kts | 65° |
| 2026-05-06 19:30 | 42.05138 | -101.54998 | 33148 ft | 499 kts | 65° |
| 2026-05-06 19:30 | 42.07675 | -101.46371 | 33136 ft | 499 kts | 65° |
| 2026-05-06 19:31 | 42.10189 | -101.37655 | 33139 ft | 499 kts | 66° |
| 2026-05-06 19:31 | 42.13942 | -101.24535 | 33146 ft | 505 kts | 66° |
| 2026-05-06 19:32 | 42.16477 | -101.15704 | 33156 ft | 505 kts | 66° |
| 2026-05-06 19:32 | 42.18950 | -101.06916 | 33155 ft | 505 kts | 67° |
| 2026-05-06 19:33 | 42.21410 | -100.98055 | 33155 ft | 505 kts | 67° |
| 2026-05-06 19:33 | 42.23876 | -100.89187 | 33155 ft | 505 kts | 67° |
| 2026-05-06 19:34 | 42.26330 | -100.80387 | 33155 ft | 504 kts | 67° |
| 2026-05-06 19:34 | 42.28808 | -100.71521 | 33156 ft | 504 kts | 67° |
| 2026-05-06 19:35 | 42.31289 | -100.62660 | 33156 ft | 504 kts | 66° |
| 2026-05-06 19:35 | 42.33782 | -100.53798 | 33148 ft | 507 kts | 66° |
| 2026-05-06 19:36 | 42.36316 | -100.44890 | 33152 ft | 508 kts | 66° |
| 2026-05-06 19:36 | 42.38816 | -100.36033 | 33150 ft | 507 kts | 67° |
| 2026-05-06 19:37 | 42.41298 | -100.27093 | 33146 ft | 507 kts | 67° |
| 2026-05-06 19:37 | 42.43335 | -100.19650 | 33159 ft | 508 kts | 68° |
| 2026-05-06 19:38 | 42.46239 | -100.09142 | 33132 ft | 510 kts | 66° |
| 2026-05-06 19:38 | 42.48884 | -100.00236 | 33128 ft | 508 kts | 63° |
| 2026-05-06 19:39 | 42.52289 | -99.91958 | 33130 ft | 506 kts | 56° |
| 2026-05-06 19:39 | 42.55903 | -99.83771 | 33135 ft | 506 kts | 57° |
| 2026-05-06 19:40 | 42.59503 | -99.75506 | 33135 ft | 510 kts | 57° |
| 2026-05-06 19:40 | 42.63075 | -99.67217 | 33142 ft | 505 kts | 57° |
| 2026-05-06 19:41 | 42.66586 | -99.59022 | 33136 ft | 506 kts | 57° |
| 2026-05-06 19:41 | 42.70130 | -99.50764 | 33140 ft | 506 kts | 57° |
| 2026-05-06 19:42 | 42.73689 | -99.42498 | 33142 ft | 509 kts | 57° |
| 2026-05-06 19:42 | 42.77292 | -99.34180 | 33148 ft | 510 kts | 57° |
| 2026-05-06 19:43 | 42.80829 | -99.25897 | 33144 ft | 510 kts | 57° |
| 2026-05-06 19:43 | 42.84367 | -99.17529 | 33146 ft | 510 kts | 58° |
| 2026-05-06 19:44 | 42.87929 | -99.09184 | 33140 ft | 507 kts | 57° |
| 2026-05-06 19:44 | 42.91464 | -99.00842 | 33144 ft | 509 kts | 57° |
| 2026-05-06 19:45 | 42.94981 | -98.92460 | 33145 ft | 509 kts | 58° |
| 2026-05-06 19:45 | 42.98473 | -98.84130 | 33145 ft | 509 kts | 57° |
| 2026-05-06 19:46 | 43.01994 | -98.75737 | 33140 ft | 509 kts | 57° |
| 2026-05-06 19:46 | 43.05524 | -98.67333 | 33141 ft | 512 kts | 57° |
| 2026-05-06 19:47 | 43.09081 | -98.58894 | 33143 ft | 512 kts | 58° |
| 2026-05-06 19:47 | 43.12601 | -98.50434 | 33136 ft | 510 kts | 58° |
| 2026-05-06 19:48 | 43.16070 | -98.42049 | 33115 ft | 509 kts | 57° |
| 2026-05-06 19:48 | 43.19591 | -98.33625 | 33133 ft | 510 kts | 58° |
| 2026-05-06 19:49 | 43.23078 | -98.25121 | 33122 ft | 512 kts | 58° |
| 2026-05-06 19:49 | 43.26561 | -98.16598 | 33130 ft | 512 kts | 58° |
| 2026-05-06 19:50 | 43.30026 | -98.08133 | 33138 ft | 512 kts | 58° |
| 2026-05-06 19:50 | 43.33517 | -97.99616 | 33146 ft | 512 kts | 58° |
| 2026-05-06 19:51 | 43.37019 | -97.91079 | 33147 ft | 513 kts | 58° |
| 2026-05-06 19:51 | 43.40491 | -97.82536 | 33148 ft | 512 kts | 58° |
| 2026-05-06 19:52 | 43.43941 | -97.74040 | 33144 ft | 512 kts | 58° |
| 2026-05-06 19:52 | 43.47396 | -97.65466 | 33144 ft | 512 kts | 58° |
| 2026-05-06 19:53 | 43.50850 | -97.56878 | 33136 ft | 513 kts | 58° |
| 2026-05-06 19:53 | 43.54334 | -97.48257 | 33138 ft | 515 kts | 58° |
| 2026-05-06 19:54 | 43.57762 | -97.39660 | 33146 ft | 515 kts | 58° |
| 2026-05-06 19:54 | 43.61213 | -97.31017 | 33142 ft | 512 kts | 58° |
| 2026-05-06 19:55 | 43.64637 | -97.22417 | 33138 ft | 511 kts | 58° |
| 2026-05-06 19:55 | 43.68058 | -97.13801 | 33131 ft | 512 kts | 58° |
| 2026-05-06 19:56 | 43.71478 | -97.05172 | 33130 ft | 512 kts | 58° |
| 2026-05-06 19:56 | 43.74792 | -96.96538 | 33120 ft | 511 kts | 57° |
| 2026-05-06 19:57 | 43.78222 | -96.87911 | 33119 ft | 513 kts | 61° |
| 2026-05-06 19:57 | 43.81629 | -96.79249 | 33130 ft | 514 kts | 58° |
| 2026-05-06 19:58 | 43.84931 | -96.70479 | 33131 ft | 511 kts | 58° |
| 2026-05-06 19:58 | 43.88360 | -96.61933 | 33154 ft | 512 kts | 59° |
| 2026-05-06 19:59 | 43.91690 | -96.53218 | 33110 ft | 511 kts | 57° |
| 2026-05-06 19:59 | 43.95007 | -96.44478 | 33090 ft | 513 kts | 60° |
| 2026-05-06 20:00 | 43.98463 | -96.35801 | 33083 ft | 514 kts | 59° |
| 2026-05-06 20:00 | 44.01726 | -96.27050 | 33082 ft | 513 kts | 57° |
| 2026-05-06 20:01 | 44.05086 | -96.18288 | 33093 ft | 514 kts | 61° |
| 2026-05-06 20:01 | 44.08494 | -96.09580 | 32699 ft | 509 kts | 59° |
| 2026-05-06 20:02 | 44.10073 | -96.05192 | 32409 ft | 506 kts | 60° |
| 2026-05-06 20:02 | 44.11719 | -96.00890 | 32093 ft | 501 kts | 57° |
| 2026-05-06 20:02 | 44.13413 | -95.96671 | 31788 ft | 498 kts | 58° |
| 2026-05-06 20:02 | 44.15020 | -95.92424 | 31476 ft | 495 kts | 62° |
| 2026-05-06 20:03 | 44.16284 | -95.87957 | 31165 ft | 494 kts | 65° |
| 2026-05-06 20:03 | 44.17737 | -95.83747 | 30789 ft | 480 kts | 55° |
| 2026-05-06 20:03 | 44.19459 | -95.79870 | 30431 ft | 463 kts | 54° |
| 2026-05-06 20:03 | 44.21106 | -95.76064 | 30038 ft | 457 kts | 56° |
| 2026-05-06 20:04 | 44.22708 | -95.72262 | 29592 ft | 452 kts | 56° |
| 2026-05-06 20:04 | 44.24276 | -95.68481 | 29182 ft | 448 kts | 56° |
| 2026-05-06 20:04 | 44.25800 | -95.64706 | 28759 ft | 445 kts | 56° |
| 2026-05-06 20:04 | 44.27304 | -95.60957 | 28311 ft | 441 kts | 56° |
| 2026-05-06 20:05 | 44.28792 | -95.57234 | 27919 ft | 438 kts | 56° |
| 2026-05-06 20:05 | 44.30262 | -95.53540 | 27552 ft | 434 kts | 56° |
| 2026-05-06 20:05 | 44.31695 | -95.49921 | 27158 ft | 430 kts | 56° |
| 2026-05-06 20:05 | 44.33135 | -95.46273 | 26758 ft | 427 kts | 57° |
| 2026-05-06 20:06 | 44.34556 | -95.42655 | 26362 ft | 423 kts | 57° |
| 2026-05-06 20:06 | 44.35964 | -95.39055 | 25977 ft | 420 kts | 57° |
| 2026-05-06 20:06 | 44.37355 | -95.35485 | 25588 ft | 417 kts | 57° |
| 2026-05-06 20:06 | 44.38735 | -95.31933 | 25243 ft | 414 kts | 57° |
| 2026-05-06 20:07 | 44.40102 | -95.28398 | 24874 ft | 412 kts | 57° |
| 2026-05-06 20:07 | 44.41457 | -95.24883 | 24513 ft | 409 kts | 57° |
| 2026-05-06 20:07 | 44.42800 | -95.21383 | 24147 ft | 406 kts | 57° |
| 2026-05-06 20:07 | 44.44082 | -95.17936 | 23946 ft | 406 kts | 60° |
| 2026-05-06 20:08 | 44.45139 | -95.14260 | 23733 ft | 409 kts | 66° |
| 2026-05-06 20:08 | 44.46024 | -95.10483 | 23491 ft | 408 kts | 67° |
| 2026-05-06 20:08 | 44.46891 | -95.06718 | 23236 ft | 406 kts | 67° |
| 2026-05-06 20:08 | 44.47755 | -95.02958 | 22857 ft | 404 kts | 67° |
| 2026-05-06 20:09 | 44.48607 | -94.99224 | 22464 ft | 401 kts | 68° |
| 2026-05-06 20:09 | 44.49449 | -94.95514 | 22070 ft | 399 kts | 68° |
| 2026-05-06 20:09 | 44.50284 | -94.91819 | 21715 ft | 397 kts | 68° |
| 2026-05-06 20:09 | 44.51102 | -94.88189 | 21360 ft | 395 kts | 68° |
| 2026-05-06 20:10 | 44.51925 | -94.84538 | 20997 ft | 392 kts | 68° |
| 2026-05-06 20:10 | 44.52742 | -94.80903 | 20647 ft | 389 kts | 68° |
| 2026-05-06 20:10 | 44.53555 | -94.77294 | 20289 ft | 387 kts | 68° |
| 2026-05-06 20:10 | 44.54363 | -94.73709 | 19936 ft | 385 kts | 68° |
| 2026-05-06 20:11 | 44.55170 | -94.70144 | 19590 ft | 383 kts | 67° |
| 2026-05-06 20:11 | 44.55973 | -94.66600 | 19242 ft | 381 kts | 67° |
| 2026-05-06 20:11 | 44.56770 | -94.63073 | 18896 ft | 378 kts | 67° |
| 2026-05-06 20:11 | 44.57565 | -94.59561 | 18560 ft | 376 kts | 68° |
| 2026-05-06 20:12 | 44.58346 | -94.56122 | 18226 ft | 374 kts | 67° |
| 2026-05-06 20:12 | 44.59134 | -94.52658 | 17836 ft | 372 kts | 67° |
| 2026-05-06 20:12 | 44.59923 | -94.49212 | 17353 ft | 370 kts | 67° |
| 2026-05-06 20:12 | 44.60710 | -94.45786 | 16865 ft | 368 kts | 67° |
| 2026-05-06 20:13 | 44.61497 | -94.42385 | 16386 ft | 365 kts | 67° |
| 2026-05-06 20:13 | 44.62283 | -94.39007 | 15916 ft | 363 kts | 67° |
| 2026-05-06 20:13 | 44.63067 | -94.35651 | 15452 ft | 361 kts | 67° |
| 2026-05-06 20:13 | 44.63827 | -94.32352 | 14945 ft | 360 kts | 68° |
| 2026-05-06 20:14 | 44.64592 | -94.29015 | 14373 ft | 358 kts | 68° |
| 2026-05-06 20:14 | 44.65352 | -94.25689 | 13794 ft | 356 kts | 68° |
| 2026-05-06 20:14 | 44.66108 | -94.22390 | 13167 ft | 353 kts | 68° |
| 2026-05-06 20:14 | 44.66871 | -94.19127 | 12544 ft | 350 kts | 68° |
| 2026-05-06 20:15 | 44.67628 | -94.15888 | 11933 ft | 347 kts | 68° |
| 2026-05-06 20:15 | 44.68382 | -94.12684 | 11335 ft | 344 kts | 68° |
| 2026-05-06 20:15 | 44.69125 | -94.09500 | 10745 ft | 341 kts | 68° |
| 2026-05-06 20:15 | 44.69857 | -94.06337 | 10167 ft | 339 kts | 69° |
| 2026-05-06 20:16 | 44.70571 | -94.03228 | 10000 ft | 331 kts | 69° |
| 2026-05-06 20:16 | 44.71266 | -94.00189 | 10000 ft | 332 kts | 69° |
| 2026-05-06 20:16 | 44.71969 | -93.97106 | 10003 ft | 331 kts | 69° |
| 2026-05-06 20:16 | 44.72671 | -93.94015 | 10005 ft | 332 kts | 69° |
| 2026-05-06 20:17 | 44.73374 | -93.90929 | 10010 ft | 332 kts | 69° |
| 2026-05-06 20:17 | 44.74069 | -93.87832 | 10008 ft | 332 kts | 69° |
| 2026-05-06 20:17 | 44.74769 | -93.84740 | 10013 ft | 332 kts | 69° |
| 2026-05-06 20:17 | 44.75471 | -93.81646 | 10015 ft | 332 kts | 69° |
| 2026-05-06 20:18 | 44.76163 | -93.78580 | 10013 ft | 320 kts | 69° |
| 2026-05-06 20:18 | 44.76806 | -93.75683 | 9996 ft | 300 kts | 69° |
| 2026-05-06 20:18 | 44.77401 | -93.72963 | 9989 ft | 292 kts | 69° |
| 2026-05-06 20:18 | 44.78009 | -93.70239 | 9986 ft | 292 kts | 68° |
| 2026-05-06 20:19 | 44.78618 | -93.67517 | 9987 ft | 292 kts | 69° |
| 2026-05-06 20:19 | 44.79226 | -93.64798 | 9987 ft | 291 kts | 69° |
| 2026-05-06 20:19 | 44.79839 | -93.62076 | 9983 ft | 292 kts | 69° |
| 2026-05-06 20:19 | 44.80450 | -93.59355 | 9983 ft | 292 kts | 69° |
| 2026-05-06 20:20 | 44.81066 | -93.56633 | 9985 ft | 292 kts | 69° |
| 2026-05-06 20:20 | 44.81682 | -93.53907 | 9983 ft | 292 kts | 69° |
| 2026-05-06 20:20 | 44.82090 | -93.52102 | 9985 ft | 292 kts | 69° |
| 2026-05-06 20:20 | 44.82904 | -93.48489 | 9860 ft | 292 kts | 69° |
| 2026-05-06 20:21 | 44.83514 | -93.45755 | 9620 ft | 293 kts | 69° |
| 2026-05-06 20:21 | 44.84123 | -93.43019 | 9349 ft | 292 kts | 69° |
| 2026-05-06 20:21 | 44.84642 | -93.40254 | 9060 ft | 294 kts | 81° |
| 2026-05-06 20:21 | 44.84359 | -93.37428 | 8761 ft | 293 kts | 112° |
| 2026-05-06 20:22 | 44.83730 | -93.35772 | 8584 ft | 287 kts | 124° |
| 2026-05-06 20:22 | 44.82493 | -93.33623 | 8314 ft | 277 kts | 128° |
| 2026-05-06 20:22 | 44.81425 | -93.31477 | 8030 ft | 256 kts | 126° |
| 2026-05-06 20:22 | 44.80151 | -93.28778 | 7995 ft | 251 kts | 121° |
| 2026-05-06 20:23 | 44.79292 | -93.26624 | 7806 ft | 251 kts | 120° |
| 2026-05-06 20:23 | 44.78445 | -93.24490 | 7545 ft | 250 kts | 120° |
| 2026-05-06 20:23 | 44.77601 | -93.22370 | 7275 ft | 249 kts | 120° |
| 2026-05-06 20:23 | 44.77041 | -93.20967 | 7085 ft | 247 kts | 120° |
| 2026-05-06 20:24 | 44.76194 | -93.18848 | 6790 ft | 247 kts | 120° |
| 2026-05-06 20:24 | 44.75352 | -93.16748 | 6522 ft | 247 kts | 120° |
| 2026-05-06 20:24 | 44.74521 | -93.14677 | 6229 ft | 241 kts | 120° |
| 2026-05-06 20:24 | 44.73428 | -93.11962 | 5839 ft | 241 kts | 120° |
| 2026-05-06 20:25 | 44.72602 | -93.09918 | 5548 ft | 240 kts | 120° |
| 2026-05-06 20:25 | 44.72057 | -93.08564 | 5356 ft | 240 kts | 119° |
| 2026-05-06 20:25 | 44.71526 | -93.06346 | 5008 ft | 240 kts | 89° |
| 2026-05-06 20:25 | 44.72007 | -93.04194 | 4823 ft | 231 kts | 47° |
| 2026-05-06 20:26 | 44.73186 | -93.02754 | 4711 ft | 222 kts | 23° |
| 2026-05-06 20:26 | 44.74636 | -93.02442 | 4556 ft | 209 kts | 343° |
| 2026-05-06 20:26 | 44.76392 | -93.03420 | 4433 ft | 205 kts | 331° |
| 2026-05-06 20:26 | 44.77271 | -93.03978 | 4356 ft | 207 kts | 332° |
| 2026-05-06 20:27 | 44.78571 | -93.04817 | 4115 ft | 205 kts | 332° |
| 2026-05-06 20:27 | 44.79838 | -93.05628 | 3991 ft | 202 kts | 332° |
| 2026-05-06 20:27 | 44.81117 | -93.06486 | 3702 ft | 202 kts | 326° |
| 2026-05-06 20:27 | 44.82083 | -93.07778 | 3339 ft | 180 kts | 303° |
| 2026-05-06 20:28 | 44.82678 | -93.09221 | 2976 ft | 162 kts | 298° |
| 2026-05-06 20:28 | 44.83234 | -93.10600 | 2512 ft | 162 kts | 300° |
| 2026-05-06 20:28 | 44.83794 | -93.11898 | 2262 ft | 152 kts | 301° |
| 2026-05-06 20:28 | 44.84330 | -93.13127 | 2069 ft | 136 kts | 300° |
| 2026-05-06 20:29 | 44.84785 | -93.14186 | 1857 ft | 119 kts | 301° |
| 2026-05-06 20:29 | 44.85198 | -93.15135 | 1687 ft | 115 kts | 300° |
| 2026-05-06 20:29 | 44.85621 | -93.16111 | 1521 ft | 118 kts | 301° |
| 2026-05-06 20:29 | 44.86051 | -93.17095 | 1330 ft | 119 kts | 300° |
| 2026-05-06 20:30 | 44.86477 | -93.18090 | 1193 ft | 117 kts | 300° |
| 2026-05-06 20:30 | 44.87281 | -93.19961 | 895 ft | 115 kts | 302° |
| 2026-05-06 20:30 | 44.87668 | -93.20851 | 828 ft | 90 kts | 301° |
| 2026-05-06 20:31 | 44.87909 | -93.21410 | 827 ft | 45 kts | 301° |
| 2026-05-06 20:31 | 44.88014 | -93.21635 | 826 ft | 13 kts | 327° |
| 2026-05-06 20:31 | 44.88092 | -93.21622 | 828 ft | 12 kts | 49° |
| 2026-05-06 20:31 | 44.88084 | -93.21513 | 827 ft | 14 kts | 120° |
| 2026-05-06 20:32 | 44.88005 | -93.21336 | 827 ft | 18 kts | 123° |
| 2026-05-06 20:32 | 44.87962 | -93.21234 | 829 ft | 19 kts | 121° |
| 2026-05-06 20:32 | 44.87904 | -93.21094 | 829 ft | 11 kts | 120° |
| 2026-05-06 20:32 | 44.87920 | -93.21005 | 829 ft | 12 kts | 36° |
| 2026-05-06 20:33 | 44.87950 | -93.20978 | 829 ft | 2 kts | 12° |
| 2026-05-06 20:33 | 44.87983 | -93.20971 | 829 ft | 6 kts | 19° |
| 2026-05-06 20:33 | 44.88010 | -93.20952 | 829 ft | 1 kts | 30° |
| 2026-05-06 20:33 | 44.88017 | -93.20946 | 827 ft | 0 kts | 30° |